Weather History for Greenville, TX

Change the Weather History Date:

Tuesday, May 28, 2013

  Actual Average Record
Temperature  
Mean Temperature 78 °F -  
Max Temperature 86 °F 83 °F 93 °F (1998)
Min Temperature 71 °F 67 °F 55 °F (2003)
Cooling Degree Days 14    
Growing Degree Days 28 (Base 50)    
Moisture  
Dew Point 64 °F    
Average Humidity 63    
Maximum Humidity 78    
Minimum Humidity 45    
Precipitation  
Precipitation 0.00 in - - ()
Sea Level Pressure  
Sea Level Pressure 29.86 in    
Wind  
Wind Speed 15 mph (SSE)    
Max Wind Speed 22 mph    
Max Gust Speed 28 mph    
Visibility 10 miles    
Events      
Averages and records for this station are not official NWS values.
T = Trace of Precipitation, MM = Missing Value Source: NWS Daily Summary

Daily Weather History Graph

Daily Weather History Graph

Search for Another Location

Airport:

Trip Planner

Search our weather history database for the weather conditions in past years. The results will help you decide how hot, cold, wet, or windy it might be!

Date:

Astronomy

May. 28, 2013 Rise Set
Actual Time 6:17 AM CDT 8:25 PM CDT
Civil Twilight 5:49 AM CDT 8:54 PM CDT
Nautical Twilight 5:15 AM CDT 9:28 PM CDT
Astronomical Twilight 4:38 AM CDT 10:05 PM CDT
Moon 11:57 PM CDT (5/28) 10:02 AM CDT (5/28)
Length of Visible Light 15h 04m
Length of Day
14h 08m
Waning Gibbous, 82% of the Moon is Illuminated
May 28
Waning Gibbous
May 31
Last Quarter
Jun 8
New
Jun 16
First Quarter
Jun 23
Full

Hourly Weather History & Observations

Time (CDT) Temp. Heat Index Dew Point Humidity Pressure Visibility Wind Dir Wind Speed Gust Speed Precip Events Conditions
12:15 AM 77.0 °F - 68.0 °F 74% 29.88 in 10.0 mi SSE 12.7 mph 18.4 mph N/A   Clear
12:35 AM 77.0 °F - 68.0 °F 74% 29.87 in 10.0 mi SSE 13.8 mph - N/A   Clear
12:55 AM 77.0 °F - 68.0 °F 74% 29.87 in 10.0 mi SSE 13.8 mph 20.7 mph N/A   Clear
1:15 AM 77.0 °F - 68.0 °F 74% 29.86 in 10.0 mi South 16.1 mph 23.0 mph N/A   Clear
1:35 AM 77.0 °F - 68.0 °F 74% 29.86 in 10.0 mi South 17.3 mph 24.2 mph N/A   Clear
1:55 AM 75.2 °F - 68.0 °F 78% 29.84 in 10.0 mi South 18.4 mph 23.0 mph N/A   Clear
2:15 AM 75.2 °F - 68.0 °F 78% 29.84 in 10.0 mi SSE 17.3 mph 24.2 mph N/A   Clear
2:35 AM 73.4 °F - 66.2 °F 78% 29.84 in 10.0 mi South 16.1 mph 21.9 mph N/A   Clear
2:55 AM 73.4 °F - 66.2 °F 78% 29.84 in 10.0 mi South 16.1 mph 23.0 mph N/A   Clear
3:15 AM 73.4 °F - 66.2 °F 78% 29.84 in 10.0 mi South 16.1 mph 25.3 mph N/A   Clear
3:35 AM 73.4 °F - 66.2 °F 78% 29.84 in 10.0 mi South 16.1 mph 20.7 mph N/A   Clear
3:55 AM 73.4 °F - 64.4 °F 73% 29.84 in 10.0 mi South 15.0 mph 23.0 mph N/A   Clear
4:15 AM 73.4 °F - 64.4 °F 73% 29.86 in 10.0 mi South 12.7 mph 25.3 mph N/A   Clear
4:35 AM 71.6 °F - 64.4 °F 78% 29.86 in 10.0 mi South 13.8 mph 20.7 mph N/A   Clear
4:55 AM 71.6 °F - 64.4 °F 78% 29.87 in 10.0 mi South 16.1 mph - N/A   Scattered Clouds
5:15 AM 71.6 °F - 64.4 °F 78% 29.88 in 10.0 mi South 15.0 mph - N/A   Mostly Cloudy
5:35 AM 71.6 °F - 64.4 °F 78% 29.88 in 10.0 mi South 13.8 mph 19.6 mph N/A   Overcast
5:55 AM 71.6 °F - 64.4 °F 78% 29.88 in 10.0 mi South 12.7 mph - N/A   Mostly Cloudy
6:15 AM 71.6 °F - 64.4 °F 78% 29.88 in 10.0 mi South 12.7 mph 19.6 mph N/A   Scattered Clouds
6:35 AM 71.6 °F - 64.4 °F 78% 29.89 in 10.0 mi SSE 11.5 mph 19.6 mph N/A   Mostly Cloudy
6:55 AM 71.6 °F - 64.4 °F 78% 29.89 in 10.0 mi South 15.0 mph 18.4 mph N/A   Overcast
7:15 AM 71.6 °F - 64.4 °F 78% 29.89 in 10.0 mi South 13.8 mph 21.9 mph N/A   Mostly Cloudy
7:35 AM 71.6 °F - 64.4 °F 78% 29.90 in 10.0 mi South 15.0 mph 21.9 mph N/A   Mostly Cloudy
7:55 AM 71.6 °F - 64.4 °F 78% 29.90 in 10.0 mi South 15.0 mph 21.9 mph N/A   Mostly Cloudy
8:15 AM 73.4 °F - 64.4 °F 73% 29.90 in 10.0 mi South 16.1 mph - N/A   Mostly Cloudy
8:35 AM 73.4 °F - 64.4 °F 73% 29.91 in 10.0 mi South 16.1 mph 21.9 mph N/A   Overcast
8:55 AM 75.2 °F - 64.4 °F 69% 29.91 in 10.0 mi South 20.7 mph 25.3 mph N/A   Mostly Cloudy
9:15 AM 77.0 °F - 64.4 °F 65% 29.91 in 10.0 mi South 15.0 mph 26.5 mph N/A   Mostly Cloudy
9:35 AM 77.0 °F - 64.4 °F 65% 29.91 in 10.0 mi South 16.1 mph 26.5 mph N/A   Mostly Cloudy
9:55 AM 78.8 °F - 64.4 °F 61% 29.91 in 10.0 mi South 19.6 mph 25.3 mph N/A   Mostly Cloudy
10:15 AM 78.8 °F - 62.6 °F 57% 29.91 in 10.0 mi South 21.9 mph 27.6 mph N/A   Mostly Cloudy
10:35 AM 80.6 °F 82.3 °F 64.4 °F 58% 29.91 in 10.0 mi South 17.3 mph - N/A   Mostly Cloudy
12:35 PM 82.4 °F 83.9 °F 64.4 °F 54% 29.92 in 10.0 mi Calm Calm 23.0 mph N/A   Scattered Clouds
1:15 PM 82.4 °F 83.4 °F 62.6 °F 51% 29.91 in 10.0 mi South 18.4 mph - N/A   Clear
1:35 PM 84.2 °F 85.0 °F 62.6 °F 48% 29.91 in 10.0 mi South 16.1 mph 20.7 mph N/A   Scattered Clouds
1:55 PM 84.2 °F 85.0 °F 62.6 °F 48% 29.90 in 10.0 mi South 19.6 mph 24.2 mph N/A   Scattered Clouds
2:15 PM 84.2 °F 85.0 °F 62.6 °F 48% 29.89 in 10.0 mi South 19.6 mph 25.3 mph N/A   Scattered Clouds
2:35 PM 82.4 °F 83.4 °F 62.6 °F 51% 29.89 in 10.0 mi SSE 16.1 mph 21.9 mph N/A   Scattered Clouds
2:55 PM 82.4 °F 83.4 °F 62.6 °F 51% 29.89 in 10.0 mi South 17.3 mph 21.9 mph N/A   Scattered Clouds
3:15 PM 84.2 °F 85.0 °F 62.6 °F 48% 29.88 in 10.0 mi South 13.8 mph 21.9 mph N/A   Scattered Clouds
3:35 PM 86.0 °F 86.6 °F 62.6 °F 45% 29.87 in 10.0 mi SSE 16.1 mph 20.7 mph N/A   Scattered Clouds
3:55 PM 86.0 °F 86.6 °F 62.6 °F 45% 29.86 in 10.0 mi SSE 20.7 mph 25.3 mph N/A   Scattered Clouds
4:15 PM 86.0 °F 86.6 °F 62.6 °F 45% 29.85 in 10.0 mi SSE 17.3 mph 21.9 mph N/A   Scattered Clouds
4:35 PM 86.0 °F 86.6 °F 62.6 °F 45% 29.84 in 10.0 mi SSE 15.0 mph 20.7 mph N/A   Scattered Clouds
4:55 PM 84.2 °F 84.4 °F 60.8 °F 45% 29.85 in 10.0 mi SSE 16.1 mph - N/A   Scattered Clouds
5:15 PM 86.0 °F 86.6 °F 62.6 °F 45% 29.84 in 10.0 mi SSE 15.0 mph - N/A   Clear
5:35 PM 84.2 °F 85.0 °F 62.6 °F 48% 29.83 in 10.0 mi SSE 11.5 mph - N/A   Clear
5:55 PM 82.4 °F 83.4 °F 62.6 °F 51% 29.83 in 10.0 mi SSE 11.5 mph 16.1 mph N/A   Clear
6:15 PM 82.4 °F 83.4 °F 62.6 °F 51% 29.83 in 10.0 mi SSE 11.5 mph - N/A   Clear
6:35 PM 82.4 °F 83.9 °F 64.4 °F 54% 29.82 in 10.0 mi SSE 10.4 mph - N/A   Clear
6:55 PM 82.4 °F 83.9 °F 64.4 °F 54% 29.81 in 10.0 mi SSE 10.4 mph - N/A   Clear
7:15 PM 82.4 °F 83.4 °F 62.6 °F 51% 29.80 in 10.0 mi SE 10.4 mph - N/A   Clear
7:35 PM 80.6 °F 81.8 °F 62.6 °F 54% 29.81 in 10.0 mi SE 9.2 mph - N/A   Clear
7:55 PM 80.6 °F 81.8 °F 62.6 °F 54% 29.81 in 10.0 mi SE 10.4 mph - N/A   Clear
8:15 PM 78.8 °F - 62.6 °F 57% 29.81 in 10.0 mi SE 11.5 mph - N/A   Clear
8:35 PM 78.8 °F - 62.6 °F 57% 29.82 in 10.0 mi SE 11.5 mph - N/A   Clear
8:55 PM 78.8 °F - 62.6 °F 57% 29.82 in 10.0 mi SSE 10.4 mph - N/A   Clear
9:15 PM 77.0 °F - 62.6 °F 61% 29.83 in 10.0 mi SE 8.1 mph - N/A   Clear
9:35 PM 77.0 °F - 62.6 °F 61% 29.83 in 10.0 mi SE 8.1 mph - N/A   Clear
9:55 PM 77.0 °F - 64.4 °F 65% 29.83 in 10.0 mi SE 9.2 mph - N/A   Clear
10:15 PM 77.0 °F - 62.6 °F 61% 29.84 in 10.0 mi SSE 8.1 mph - N/A   Clear
10:35 PM 77.0 °F - 64.4 °F 65% 29.84 in 10.0 mi SSE 10.4 mph - N/A   Clear
10:55 PM 77.0 °F - 64.4 °F 65% 29.83 in 10.0 mi SSE 12.7 mph - N/A   Clear
11:15 PM 77.0 °F - 64.4 °F 65% 29.83 in 10.0 mi SSE 13.8 mph - N/A   Clear
11:35 PM 77.0 °F - 62.6 °F 61% 29.82 in 10.0 mi SSE 16.1 mph 21.9 mph N/A   Clear
11:55 PM 77.0 °F - 64.4 °F 65% 29.82 in 10.0 mi SSE 19.6 mph 23.0 mph N/A   Clear